createdAt,value
2018-01-02T00:01:07.375Z,5.60
2018-01-02T00:03:35.635Z,5.50
2018-01-02T00:06:03.776Z,5.60
2018-01-02T00:08:31.956Z,5.50
2018-01-02T00:11:00.101Z,5.50
2018-01-02T00:13:28.347Z,5.40
2018-01-02T00:15:56.532Z,5.40
2018-01-02T00:18:24.696Z,5.30
2018-01-02T00:20:52.869Z,5.20
2018-01-02T00:23:21.047Z,5.20
2018-01-02T00:25:49.976Z,5.20
2018-01-02T00:28:18.115Z,5.20
2018-01-02T00:30:47.006Z,5.10
2018-01-02T00:33:15.172Z,5.10
2018-01-02T00:35:44.070Z,5.00
2018-01-02T00:38:12.197Z,5.00
2018-01-02T00:40:41.852Z,5.10
2018-01-02T00:43:09.956Z,5.10
2018-01-02T00:45:38.105Z,5.00
2018-01-02T00:48:06.320Z,5.10
2018-01-02T00:50:35.513Z,5.10
2018-01-02T00:53:03.653Z,5.10
2018-01-02T00:55:31.760Z,5.00
2018-01-02T00:57:59.905Z,5.00
2018-01-02T01:00:28.036Z,5.00
2018-01-02T01:02:56.172Z,5.00
2018-01-02T01:05:24.297Z,5.00
2018-01-02T01:07:52.441Z,5.00
2018-01-02T01:10:20.560Z,5.00
2018-01-02T01:12:49.453Z,5.00
2018-01-02T01:15:17.574Z,5.00
2018-01-02T01:17:45.720Z,5.00
2018-01-02T01:20:13.838Z,5.00
2018-01-02T01:22:41.968Z,5.10
2018-01-02T01:25:10.076Z,5.00
2018-01-02T01:27:38.190Z,5.20
2018-01-02T01:30:06.320Z,5.20
2018-01-02T01:32:34.436Z,5.20
2018-01-02T01:35:02.568Z,5.20
2018-01-02T01:37:30.707Z,5.20
2018-01-02T01:39:59.682Z,5.20
2018-01-02T01:42:27.848Z,5.20
2018-01-02T01:44:55.989Z,5.10
2018-01-02T01:47:24.149Z,5.00
2018-01-02T01:49:52.403Z,4.90
2018-01-02T01:52:20.512Z,4.80
2018-01-02T01:54:48.652Z,4.70
2018-01-02T01:57:16.781Z,4.70
2018-01-02T01:59:44.901Z,4.60
2018-01-02T02:02:13.033Z,4.60
2018-01-02T02:04:41.153Z,4.60
2018-01-02T02:07:09.302Z,4.50
2018-01-02T02:09:37.684Z,4.50
2018-01-02T02:12:05.846Z,4.50
2018-01-02T02:14:34.769Z,4.50
2018-01-02T02:17:02.920Z,4.50
2018-01-02T02:19:31.037Z,4.50
2018-01-02T02:21:59.194Z,4.50
2018-01-02T02:24:27.314Z,4.40
2018-01-02T02:26:56.225Z,4.40
2018-01-02T02:29:24.345Z,4.40
2018-01-02T02:31:52.468Z,4.40
2018-01-02T02:34:20.612Z,4.30
2018-01-02T02:36:49.505Z,4.30
2018-01-02T02:39:17.629Z,4.20
2018-01-02T02:41:45.735Z,4.20
2018-01-02T02:44:13.860Z,4.20
2018-01-02T02:46:41.985Z,4.20
2018-01-02T02:49:10.112Z,4.20
2018-01-02T02:51:38.232Z,4.10
2018-01-02T02:54:07.144Z,4.10
2018-01-02T02:56:35.265Z,4.20
2018-01-02T02:59:03.413Z,4.10
2018-01-02T03:01:31.548Z,4.10
2018-01-02T03:03:59.678Z,4.20
2018-01-02T03:06:27.809Z,4.20
2018-01-02T03:08:55.932Z,4.10
2018-01-02T03:11:24.057Z,4.10
2018-01-02T03:13:52.180Z,4.20
2018-01-02T03:16:20.330Z,4.30
2018-01-02T03:18:49.228Z,4.20
2018-01-02T03:21:18.125Z,4.20
2018-01-02T03:23:46.259Z,4.20
2018-01-02T03:26:14.428Z,4.10
2018-01-02T03:28:42.565Z,4.10
2018-01-02T03:31:11.458Z,4.20
2018-01-02T03:33:40.354Z,4.10
2018-01-02T03:36:08.595Z,4.10
2018-01-02T03:38:36.741Z,4.10
2018-01-02T03:41:04.902Z,4.10
2018-01-02T03:43:33.024Z,4.10
2018-01-02T03:46:01.147Z,4.00
2018-01-02T03:48:29.293Z,4.10
2018-01-02T03:50:57.420Z,4.10
2018-01-02T03:53:25.564Z,4.10
2018-01-02T03:55:53.689Z,4.10
2018-01-02T03:58:22.569Z,4.10
2018-01-02T04:00:51.486Z,4.10
2018-01-02T04:03:19.613Z,4.20
2018-01-02T04:05:47.752Z,4.10
2018-01-02T04:08:15.866Z,4.00
2018-01-02T04:10:44.856Z,4.10
2018-01-02T04:13:13.329Z,4.10
2018-01-02T04:15:41.459Z,4.10
2018-01-02T04:18:09.580Z,4.10
2018-01-02T04:20:38.483Z,4.10
2018-01-02T04:23:06.596Z,4.10
2018-01-02T04:25:34.876Z,4.10
2018-01-02T04:28:03.100Z,4.10
2018-01-02T04:30:32.011Z,4.00
2018-01-02T04:33:00.142Z,4.00
2018-01-02T04:35:28.273Z,4.00
2018-01-02T04:38:06.072Z,4.00
2018-01-02T04:40:34.217Z,4.00
2018-01-02T04:43:02.353Z,4.00
2018-01-02T04:45:30.472Z,4.00
2018-01-02T04:47:58.624Z,4.00
2018-01-02T04:50:26.755Z,4.10
2018-01-02T04:52:54.880Z,4.00
2018-01-02T04:55:23.070Z,4.00
2018-01-02T04:57:52.713Z,4.10
2018-01-02T05:00:20.837Z,4.10
2018-01-02T05:02:48.952Z,4.10
2018-01-02T05:05:17.094Z,4.10
2018-01-02T05:07:45.204Z,4.10
2018-01-02T05:10:14.105Z,4.10
2018-01-02T05:12:42.250Z,4.10
2018-01-02T05:15:10.384Z,4.10
2018-01-02T05:17:38.501Z,4.00
2018-01-02T05:20:06.645Z,4.10
2018-01-02T05:22:34.766Z,4.10
2018-01-02T05:25:03.668Z,4.10
2018-01-02T05:27:32.564Z,4.10
2018-01-02T05:30:00.694Z,4.10
2018-01-02T05:32:28.828Z,4.10
2018-01-02T05:34:56.981Z,4.10
2018-01-02T05:37:25.125Z,4.10
2018-01-02T05:39:54.010Z,4.00
2018-01-02T05:42:22.913Z,4.00
2018-01-02T05:44:51.061Z,4.00
2018-01-02T05:47:19.212Z,4.10
2018-01-02T05:49:47.333Z,4.00
2018-01-02T05:52:15.453Z,4.00
2018-01-02T05:54:44.365Z,4.00
2018-01-02T05:57:12.504Z,4.00
2018-01-02T05:59:40.641Z,4.00
2018-01-02T06:02:08.770Z,4.00
2018-01-02T06:04:36.921Z,3.90
2018-01-02T06:07:05.065Z,3.90
2018-01-02T06:09:33.222Z,3.80
2018-01-02T06:12:01.366Z,3.90
2018-01-02T06:14:29.504Z,3.90
2018-01-02T06:16:57.627Z,3.90
2018-01-02T06:19:25.754Z,3.90
2018-01-02T06:21:54.665Z,4.00
2018-01-02T06:24:22.786Z,3.90
2018-01-02T06:26:50.925Z,3.90
2018-01-02T06:29:19.806Z,4.00
2018-01-02T06:31:49.070Z,3.90
2018-01-02T06:34:17.181Z,3.90
2018-01-02T06:36:45.317Z,3.90
2018-01-02T06:39:13.442Z,4.10
2018-01-02T06:41:41.581Z,4.00
2018-01-02T06:44:09.719Z,4.10
2018-01-02T06:46:37.834Z,4.10
2018-01-02T06:49:05.984Z,4.10
2018-01-02T06:51:34.130Z,4.10
2018-01-02T06:54:02.265Z,4.10
2018-01-02T06:56:30.392Z,4.10
2018-01-02T06:58:59.293Z,4.10
2018-01-02T07:01:27.422Z,4.10
2018-01-02T07:03:55.548Z,4.00
2018-01-02T07:06:23.664Z,4.00
2018-01-02T07:08:51.925Z,3.90
2018-01-02T07:11:20.072Z,3.90
2018-01-02T07:13:49.359Z,3.90
2018-01-02T07:16:17.526Z,3.90
2018-01-02T07:18:45.660Z,3.90
2018-01-02T07:21:13.800Z,3.90
2018-01-02T07:23:41.918Z,3.90
2018-01-02T07:26:10.053Z,3.90
2018-01-02T07:28:38.184Z,3.90
2018-01-02T07:31:06.333Z,3.90
2018-01-02T07:33:34.450Z,3.90
2018-01-02T07:36:03.350Z,3.90
2018-01-02T07:38:32.227Z,3.90
2018-01-02T07:41:00.401Z,3.90
2018-01-02T07:43:29.348Z,3.90
2018-01-02T07:45:58.182Z,4.00
2018-01-02T07:48:27.077Z,4.00
2018-01-02T07:50:55.213Z,4.00
2018-01-02T07:53:23.378Z,4.00
2018-01-02T07:55:51.503Z,4.00
2018-01-02T07:58:19.639Z,4.10
2018-01-02T08:00:47.759Z,4.10
2018-01-02T08:03:15.905Z,4.10
2018-01-02T08:05:44.016Z,4.20
2018-01-02T08:08:12.162Z,4.20
2018-01-02T08:10:40.258Z,4.20
2018-01-02T08:13:08.368Z,4.20
2018-01-02T08:15:36.510Z,4.40
2018-01-02T08:18:04.628Z,4.50
2018-01-02T08:20:33.516Z,4.40
2018-01-02T08:23:02.411Z,4.30
2018-01-02T08:25:31.315Z,4.30
2018-01-02T08:27:59.431Z,4.30
2018-01-02T08:30:27.555Z,4.30
2018-01-02T08:32:55.738Z,4.30
2018-01-02T08:35:23.864Z,4.30
2018-01-02T08:37:52.741Z,4.50
2018-01-02T08:40:20.874Z,4.50
2018-01-02T08:42:48.983Z,4.50
2018-01-02T08:45:17.118Z,4.40
2018-01-02T08:47:45.249Z,4.10
2018-01-02T08:50:14.245Z,3.90
2018-01-02T08:52:43.152Z,3.90
2018-01-02T08:55:11.284Z,3.90
2018-01-02T08:57:39.413Z,3.90
2018-01-02T09:00:07.557Z,3.90
2018-01-02T09:02:35.778Z,3.90
2018-01-02T09:05:03.898Z,3.90
2018-01-02T09:07:32.029Z,4.00
2018-01-02T09:10:00.150Z,4.10
2018-01-02T09:12:33.890Z,4.10
2018-01-02T09:15:02.015Z,4.20
2018-01-02T09:17:30.181Z,4.20
2018-01-02T09:19:58.293Z,4.20
2018-01-02T09:22:26.426Z,4.20
2018-01-02T09:24:54.573Z,4.20
2018-01-02T09:27:22.740Z,4.10
2018-01-02T09:29:50.862Z,4.10
2018-01-02T09:32:18.985Z,4.20
2018-01-02T09:34:47.121Z,4.20
2018-01-02T09:37:15.234Z,4.30
2018-01-02T09:39:43.370Z,4.30
2018-01-02T09:42:11.477Z,4.30
2018-01-02T09:44:39.601Z,4.30
2018-01-02T09:47:07.751Z,4.20
2018-01-02T09:49:35.888Z,4.20
2018-01-02T09:52:03.993Z,4.20
2018-01-02T09:54:32.120Z,4.20
2018-01-02T09:57:00.239Z,4.30
2018-01-02T09:59:28.378Z,4.20
2018-01-02T10:01:57.265Z,4.30
2018-01-02T10:04:26.153Z,4.30
2018-01-02T10:06:54.286Z,4.30
2018-01-02T10:09:22.406Z,4.30
2018-01-02T10:11:50.637Z,4.30
2018-01-02T10:14:19.578Z,4.40
2018-01-02T10:16:47.722Z,4.40
2018-01-02T10:19:15.839Z,4.40
2018-01-02T10:21:43.980Z,4.40
2018-01-02T10:24:12.087Z,4.40
2018-01-02T10:26:41.300Z,4.30
2018-01-02T10:29:09.412Z,4.40
2018-01-02T10:31:38.295Z,4.40
2018-01-02T10:34:06.433Z,4.30
2018-01-02T10:36:34.542Z,4.30
2018-01-02T10:39:03.438Z,4.20
2018-01-02T10:41:32.349Z,4.30
2018-01-02T10:44:00.474Z,4.30
2018-01-02T10:46:28.590Z,4.20
2018-01-02T10:48:56.725Z,4.20
2018-01-02T10:51:25.612Z,4.20
2018-01-02T10:53:53.757Z,4.20
2018-01-02T10:56:21.876Z,4.20
2018-01-02T10:58:50.015Z,4.20
2018-01-02T11:01:25.372Z,4.20
2018-01-02T11:03:53.613Z,4.10
2018-01-02T11:06:21.828Z,4.30
2018-01-02T11:08:49.992Z,4.40
2018-01-02T11:11:20.130Z,4.40
2018-01-02T11:13:48.249Z,4.30
2018-01-02T11:16:16.422Z,4.30
2018-01-02T11:18:44.538Z,4.30
2018-01-02T11:21:13.441Z,4.30
2018-01-02T11:23:41.564Z,4.30
2018-01-02T11:26:09.698Z,4.30
2018-01-02T11:28:37.809Z,4.30
2018-01-02T11:31:05.948Z,4.20
2018-01-02T11:33:34.064Z,4.20
2018-01-02T11:36:02.180Z,4.20
2018-01-02T11:38:30.328Z,4.30
2018-01-02T11:40:59.205Z,4.30
2018-01-02T11:43:28.091Z,4.40
2018-01-02T11:45:56.977Z,4.50
2018-01-02T11:48:25.113Z,4.40
2018-01-02T11:50:53.233Z,4.50
2018-01-02T11:53:22.140Z,4.60
2018-01-02T11:55:50.264Z,4.60
2018-01-02T11:58:18.389Z,4.60
2018-01-02T12:00:46.500Z,4.60
2018-01-02T12:03:14.613Z,4.50
2018-01-02T12:05:42.746Z,4.50
2018-01-02T12:08:10.862Z,4.50
2018-01-02T12:10:38.997Z,4.50
2018-01-02T12:13:07.105Z,4.50
2018-01-02T12:15:35.240Z,4.60
2018-01-02T12:18:03.357Z,4.60
2018-01-02T12:20:31.492Z,4.60
2018-01-02T12:22:59.600Z,4.60
2018-01-02T12:25:28.569Z,4.60
2018-01-02T12:27:57.448Z,4.70
2018-01-02T12:30:26.346Z,4.70
2018-01-02T12:32:55.251Z,4.90
2018-01-02T12:35:23.392Z,4.80
2018-01-02T12:37:52.273Z,5.00
2018-01-02T12:40:20.428Z,5.00
2018-01-02T12:42:48.563Z,5.30
2018-01-02T12:45:16.675Z,5.40
2018-01-02T12:47:44.809Z,5.20
2018-01-02T12:50:13.034Z,5.10
2018-01-02T12:52:41.157Z,5.10
2018-01-02T12:55:09.377Z,5.00
2018-01-02T12:57:37.528Z,5.00
2018-01-02T13:00:05.714Z,5.00
2018-01-02T13:02:33.933Z,5.00
2018-01-02T13:05:02.114Z,4.90
2018-01-02T13:07:30.274Z,4.90
2018-01-02T13:09:58.994Z,4.90
2018-01-02T13:12:27.206Z,4.90
2018-01-02T13:14:55.369Z,4.80
2018-01-02T13:17:23.569Z,4.80
2018-01-02T13:19:51.766Z,4.80
2018-01-02T13:22:19.917Z,4.80
2018-01-02T13:24:48.129Z,4.80
2018-01-02T13:27:16.338Z,4.90
2018-01-02T13:29:44.601Z,4.90
2018-01-02T13:32:12.733Z,5.30
2018-01-02T13:34:40.945Z,5.40
2018-01-02T13:37:09.100Z,5.30
2018-01-02T13:39:37.240Z,5.10
2018-01-02T13:42:05.481Z,5.10
2018-01-02T13:44:33.709Z,5.10
2018-01-02T13:47:01.850Z,5.20
2018-01-02T13:49:29.974Z,5.20
2018-01-02T13:51:58.118Z,5.20
2018-01-02T13:54:26.225Z,5.10
2018-01-02T13:56:54.367Z,5.10
2018-01-02T13:59:22.475Z,5.00
2018-01-02T14:01:51.392Z,5.20
2018-01-02T14:04:19.514Z,5.20
2018-01-02T14:06:47.623Z,5.20
2018-01-02T14:09:16.517Z,5.10
2018-01-02T14:11:44.633Z,5.10
2018-01-02T14:14:13.145Z,5.00
2018-01-02T14:16:41.256Z,4.90
2018-01-02T14:19:09.407Z,4.80
2018-01-02T14:21:38.363Z,4.80
2018-01-02T14:24:08.038Z,4.70
2018-01-02T14:26:36.177Z,4.70
2018-01-02T14:29:05.155Z,4.70
2018-01-02T14:31:33.302Z,4.70
2018-01-02T14:34:01.426Z,4.70
2018-01-02T14:36:29.569Z,4.80
2018-01-02T14:38:58.514Z,4.80
2018-01-02T14:41:26.729Z,4.80
2018-01-02T14:43:54.861Z,4.70
2018-01-02T14:46:22.982Z,4.70
2018-01-02T14:48:52.221Z,4.50
2018-01-02T14:51:20.348Z,4.50
2018-01-02T14:53:49.224Z,4.40
2018-01-02T14:56:17.381Z,4.40
2018-01-02T14:58:45.505Z,4.40
2018-01-02T15:01:13.686Z,4.30
2018-01-02T15:03:41.814Z,4.20
2018-01-02T15:06:09.976Z,4.20
2018-01-02T15:08:38.097Z,4.10
2018-01-02T15:11:06.220Z,4.10
2018-01-02T15:13:34.353Z,4.00
2018-01-02T15:16:02.493Z,4.00
2018-01-02T15:18:30.642Z,3.90
2018-01-02T15:20:59.940Z,3.90
2018-01-02T15:23:28.069Z,3.90
2018-01-02T15:25:56.243Z,3.90
2018-01-02T15:28:24.396Z,3.80
2018-01-02T15:30:52.539Z,3.80
2018-01-02T15:33:21.563Z,3.70
2018-01-02T15:35:49.729Z,3.70
2018-01-02T15:38:17.886Z,3.70
2018-01-02T15:40:46.024Z,3.70
2018-01-02T15:43:14.240Z,3.70
2018-01-02T15:45:42.379Z,3.70
2018-01-02T15:48:10.502Z,3.60
2018-01-02T15:50:38.649Z,3.70
2018-01-02T15:53:06.751Z,3.70
2018-01-02T15:55:34.928Z,3.60
2018-01-02T15:58:03.079Z,3.60
2018-01-02T16:00:31.224Z,3.50
2018-01-02T16:02:59.382Z,3.50
2018-01-02T16:05:28.264Z,3.40
2018-01-02T16:07:57.288Z,3.40
2018-01-02T16:10:25.433Z,3.40
2018-01-02T16:12:53.617Z,3.40
2018-01-02T16:15:22.547Z,3.50
2018-01-02T16:17:50.728Z,3.50
2018-01-02T16:20:18.903Z,3.50
2018-01-02T16:22:47.038Z,3.50
2018-01-02T16:25:15.229Z,3.50
2018-01-02T16:27:43.390Z,3.60
2018-01-02T16:30:11.538Z,3.70
2018-01-02T16:32:40.511Z,3.80
2018-01-02T16:35:08.626Z,3.70
2018-01-02T16:37:36.765Z,3.70
2018-01-02T16:40:05.699Z,3.70
2018-01-02T16:42:33.858Z,3.70
2018-01-02T16:45:02.008Z,3.70
2018-01-02T16:47:30.980Z,3.80
2018-01-02T16:49:59.128Z,3.80
2018-01-02T16:52:27.268Z,3.80
2018-01-02T16:54:55.494Z,3.70
2018-01-02T16:57:23.629Z,3.70
2018-01-02T16:59:51.804Z,3.70
2018-01-02T17:02:20.012Z,3.80
2018-01-02T17:04:48.151Z,3.70
2018-01-02T17:07:16.327Z,3.70
2018-01-02T17:09:44.499Z,3.70
2018-01-02T17:14:55.070Z,3.70
2018-01-02T17:17:23.217Z,3.70
2018-01-02T17:19:51.324Z,3.70
2018-01-02T17:22:19.540Z,3.70
2018-01-02T17:24:48.499Z,3.60
2018-01-02T17:27:16.633Z,3.70
2018-01-02T17:29:44.824Z,3.60
2018-01-02T17:32:13.001Z,3.60
2018-01-02T17:34:41.163Z,3.50
2018-01-02T17:37:09.392Z,3.50
2018-01-02T17:39:37.613Z,3.50
2018-01-02T17:42:05.780Z,3.50
2018-01-02T17:44:33.961Z,3.50
2018-01-02T17:47:02.153Z,3.50
2018-01-02T17:49:30.332Z,3.50
2018-01-02T17:51:58.523Z,3.50
2018-01-02T17:54:26.702Z,3.40
2018-01-02T17:56:54.967Z,3.40
2018-01-02T17:59:23.144Z,3.30
2018-01-02T18:01:52.146Z,3.20
2018-01-02T18:04:20.415Z,3.20
2018-01-02T18:06:49.409Z,3.10
2018-01-02T18:09:17.584Z,3.10
2018-01-02T18:11:46.542Z,3.00
2018-01-02T18:14:14.728Z,3.10
2018-01-02T18:16:42.879Z,3.00
2018-01-02T18:19:11.051Z,3.00
2018-01-02T18:21:39.211Z,3.10
2018-01-02T18:24:07.400Z,3.00
2018-01-02T18:26:35.580Z,2.90
2018-01-02T18:29:03.700Z,2.90
2018-01-02T18:31:32.004Z,2.90
2018-01-02T18:34:00.173Z,3.00
2018-01-02T18:36:28.343Z,3.00
2018-01-02T18:38:56.529Z,3.00
2018-01-02T18:41:24.759Z,3.10
2018-01-02T18:43:52.979Z,3.10
2018-01-02T18:46:27.735Z,3.10
2018-01-02T18:49:00.090Z,3.10
2018-01-02T18:51:34.428Z,3.00
2018-01-02T18:54:16.342Z,3.10
2018-01-02T18:57:00.350Z,3.10
2018-01-02T18:59:43.954Z,3.10
2018-01-02T19:02:14.919Z,3.00
2018-01-02T19:04:43.071Z,3.00
2018-01-02T19:07:11.259Z,3.10
2018-01-02T19:09:39.485Z,3.00
2018-01-02T19:12:07.672Z,3.10
2018-01-02T19:14:35.780Z,3.00
2018-01-02T19:17:04.714Z,3.10
2018-01-02T19:19:32.840Z,3.10
2018-01-02T19:22:01.003Z,3.10
2018-01-02T19:24:29.135Z,3.10
2018-01-02T19:26:57.303Z,3.10
2018-01-02T19:29:25.475Z,3.10
2018-01-02T19:31:53.636Z,3.10
2018-01-02T19:34:22.567Z,3.10
2018-01-02T19:36:50.805Z,3.00
2018-01-02T19:39:19.748Z,3.10
2018-01-02T19:41:47.907Z,3.10
2018-01-02T19:44:16.088Z,3.10
2018-01-02T19:46:44.240Z,3.10
2018-01-02T19:49:12.423Z,3.10
2018-01-02T19:51:40.584Z,3.10
2018-01-02T19:54:08.741Z,3.10
2018-01-02T19:56:36.914Z,3.20
2018-01-02T19:59:05.092Z,3.20
2018-01-02T20:01:33.356Z,3.10
2018-01-02T20:04:01.681Z,3.10
2018-01-02T20:06:29.848Z,3.10
2018-01-02T20:08:58.007Z,3.10
2018-01-02T20:11:26.204Z,3.10
2018-01-02T20:13:54.637Z,3.10
2018-01-02T20:16:23.736Z,3.10
2018-01-02T20:18:51.898Z,3.10
2018-01-02T20:21:20.445Z,3.10
2018-01-02T20:23:49.391Z,3.10
2018-01-02T20:26:17.571Z,3.10
2018-01-02T20:28:45.756Z,3.20
2018-01-02T20:31:14.281Z,3.30
2018-01-02T20:33:43.637Z,3.20
2018-01-02T20:36:11.798Z,3.20
2018-01-02T20:38:39.964Z,3.20
2018-01-02T20:41:08.126Z,3.20
2018-01-02T20:43:38.172Z,3.20
2018-01-02T20:46:09.826Z,3.20
2018-01-02T20:48:38.004Z,3.10
2018-01-02T20:51:06.667Z,3.20
2018-01-02T20:53:34.837Z,3.20
2018-01-02T20:56:03.008Z,3.10
2018-01-02T20:58:31.244Z,3.10
2018-01-02T21:01:00.036Z,3.20
2018-01-02T21:03:28.244Z,3.20
2018-01-02T21:05:59.928Z,3.20
2018-01-02T21:08:29.516Z,3.20
2018-01-02T21:10:58.105Z,3.20
2018-01-02T21:13:27.776Z,3.10
2018-01-02T21:15:57.518Z,3.10
2018-01-02T21:18:25.688Z,3.10
2018-01-02T21:20:53.873Z,3.10
2018-01-02T21:23:22.028Z,3.20
2018-01-02T21:25:50.208Z,3.20
2018-01-02T21:28:18.371Z,3.20
2018-01-02T21:30:46.592Z,3.10
2018-01-02T21:33:14.754Z,3.20
2018-01-02T21:35:43.732Z,3.30
2018-01-02T21:38:11.986Z,3.20
2018-01-02T21:40:40.173Z,3.20
2018-01-02T21:43:08.332Z,3.20
2018-01-02T21:45:36.504Z,3.30
2018-01-02T21:48:04.680Z,3.20
2018-01-02T21:50:32.895Z,3.30
2018-01-02T21:53:01.073Z,3.30
2018-01-02T21:55:29.224Z,3.20
2018-01-02T21:57:58.171Z,3.30
2018-01-02T22:00:27.087Z,3.30
2018-01-02T22:02:55.267Z,3.20
2018-01-02T22:05:24.196Z,3.30
2018-01-02T22:07:52.401Z,3.30
2018-01-02T22:10:20.561Z,3.30
2018-01-02T22:12:48.740Z,3.30
2018-01-02T22:15:16.908Z,3.30
2018-01-02T22:17:45.112Z,3.30
2018-01-02T22:20:13.272Z,3.30
2018-01-02T22:22:41.459Z,3.30
2018-01-02T22:25:09.640Z,3.40
2018-01-02T22:27:37.800Z,3.30
2018-01-02T22:30:05.998Z,3.40
2018-01-02T22:32:34.965Z,3.50
2018-01-02T22:35:03.190Z,3.50
2018-01-02T22:37:31.414Z,3.50
2018-01-02T22:39:59.662Z,3.70
2018-01-02T22:42:27.885Z,3.60
2018-01-02T22:44:56.829Z,3.60
2018-01-02T22:47:25.055Z,3.60
2018-01-02T22:49:53.311Z,3.60
2018-01-02T22:52:22.295Z,3.60
2018-01-02T22:54:51.286Z,3.60
2018-01-02T22:57:19.457Z,3.60
2018-01-02T22:59:47.643Z,3.60
2018-01-02T23:02:16.577Z,3.60
2018-01-02T23:04:44.777Z,3.60
2018-01-02T23:07:12.952Z,3.60
2018-01-02T23:09:41.122Z,3.60
2018-01-02T23:12:09.340Z,3.60
2018-01-02T23:14:37.520Z,3.60
2018-01-02T23:17:05.727Z,3.60
2018-01-02T23:19:33.921Z,3.60
2018-01-02T23:22:02.077Z,3.60
2018-01-02T23:24:33.155Z,3.60
2018-01-02T23:27:02.104Z,3.50
2018-01-02T23:29:30.279Z,3.50
2018-01-02T23:31:58.440Z,3.50
2018-01-02T23:34:26.608Z,3.50
2018-01-02T23:36:54.765Z,3.50
2018-01-02T23:39:22.944Z,3.50
2018-01-02T23:41:51.347Z,3.50
2018-01-02T23:44:19.514Z,3.60
2018-01-02T23:46:47.681Z,3.50
2018-01-02T23:49:15.852Z,3.50
2018-01-02T23:51:44.009Z,3.60
2018-01-02T23:54:12.156Z,3.60
2018-01-02T23:56:40.324Z,3.50
2018-01-02T23:59:09.251Z,3.60
